Time;durP1;ratioP1;P1;durP2;ratioP2;P2;SDS_P1;SDS_P2;PMS_P1;PMS_P2;Temp;Humidity;BMP_temperature;BMP_pressure;BME280_temperature;BME280_humidity;BME280_pressure;Samples;Min_cycle;Max_cycle;Signal;HPM_P1;HPM_P2
2024/01/17 00:00:40;;;;;;;4.45;2.10;;;;;;;;;;10280901;28;20249;-68
2024/01/17 00:05:41;;;;;;;4.45;1.80;;;;;;;;;;10261028;28;20258;-69
2024/01/17 00:10:42;;;;;;;8.75;2.50;;;;;;;;;;10273093;28;20194;-69
2024/01/17 00:15:43;;;;;;;8.20;2.08;;;;;;;;;;10268539;28;20721;-68
2024/01/17 00:20:44;;;;;;;1.98;1.65;;;;;;;;;;10282291;28;20194;-69
2024/01/17 00:25:45;;;;;;;2.15;2.05;;;;;;;;;;10288277;28;20241;-68
2024/01/17 00:30:46;;;;;;;3.53;2.15;;;;;;;;;;10281128;28;20264;-68
2024/01/17 00:35:48;;;;;;;4.32;2.05;;;;;;;;;;10323161;28;20209;-68
2024/01/17 00:40:49;;;;;;;3.92;2.70;;;;;;;;;;10313859;28;20625;-69
2024/01/17 00:45:50;;;;;;;2.78;2.15;;;;;;;;;;10303701;28;20220;-69
2024/01/17 00:50:51;;;;;;;4.10;3.20;;;;;;;;;;10316446;28;20200;-69
2024/01/17 00:55:51;;;;;;;3.97;2.78;;;;;;;;;;10311879;28;20802;-68
2024/01/17 01:00:52;;;;;;;5.40;2.72;;;;;;;;;;10324652;28;20215;-68
2024/01/17 01:05:53;;;;;;;7.35;3.15;;;;;;;;;;10316310;28;20217;-69
2024/01/17 01:10:54;;;;;;;7.97;3.53;;;;;;;;;;10319004;28;20193;-68
2024/01/17 01:15:55;;;;;;;5.43;3.13;;;;;;;;;;10297472;28;20209;-68
2024/01/17 01:20:57;;;;;;;5.38;3.28;;;;;;;;;;10325236;28;20200;-68
2024/01/17 01:25:58;;;;;;;16.20;3.53;;;;;;;;;;10308493;28;20257;-68
2024/01/17 01:30:59;;;;;;;6.47;3.67;;;;;;;;;;10313191;28;20319;-68
2024/01/17 01:36:00;;;;;;;8.55;4.75;;;;;;;;;;10326749;28;20220;-68
2024/01/17 01:41:01;;;;;;;8.60;3.97;;;;;;;;;;10307786;28;20189;-68
2024/01/17 01:46:02;;;;;;;5.15;4.03;;;;;;;;;;10318100;28;20217;-68
2024/01/17 01:51:03;;;;;;;4.00;2.93;;;;;;;;;;10320009;28;20196;-69
2024/01/17 01:56:04;;;;;;;6.68;2.80;;;;;;;;;;10307443;28;20213;-68
2024/01/17 02:01:06;;;;;;;10.52;3.78;;;;;;;;;;10300586;28;20233;-68
2024/01/17 02:06:07;;;;;;;4.90;3.35;;;;;;;;;;10309761;28;20798;-69
2024/01/17 02:11:08;;;;;;;6.70;3.47;;;;;;;;;;10288793;28;20195;-69
2024/01/17 02:16:09;;;;;;;4.85;2.70;;;;;;;;;;10303677;28;20364;-68
2024/01/17 02:21:12;;;;;;;5.00;3.10;;;;;;;;;;10309489;28;20276;-68
2024/01/17 02:26:13;;;;;;;2.65;2.42;;;;;;;;;;10311341;28;20218;-68
2024/01/17 02:31:14;;;;;;;11.25;3.22;;;;;;;;;;10307525;28;20230;-69
2024/01/17 02:36:15;;;;;;;2.20;1.80;;;;;;;;;;10297481;28;20284;-68
2024/01/17 02:41:16;;;;;;;10.60;3.57;;;;;;;;;;10280221;28;20195;-68
2024/01/17 02:46:17;;;;;;;3.50;2.67;;;;;;;;;;10310324;28;20208;-68
2024/01/17 02:51:18;;;;;;;4.63;1.50;;;;;;;;;;10313420;28;20181;-68
2024/01/17 02:56:19;;;;;;;2.60;1.70;;;;;;;;;;10319437;28;20208;-68
2024/01/17 03:01:20;;;;;;;5.07;2.63;;;;;;;;;;10311651;28;20617;-68
2024/01/17 03:06:21;;;;;;;6.88;2.28;;;;;;;;;;10290639;28;20215;-68
2024/01/17 03:11:22;;;;;;;8.70;2.58;;;;;;;;;;10300659;28;20176;-69
2024/01/17 03:16:23;;;;;;;3.22;2.05;;;;;;;;;;10276484;28;20212;-68
2024/01/17 03:21:24;;;;;;;4.97;2.67;;;;;;;;;;10304336;28;20667;-69
2024/01/17 03:26:25;;;;;;;2.27;2.07;;;;;;;;;;10321200;28;20648;-68
2024/01/17 03:31:26;;;;;;;10.37;2.70;;;;;;;;;;10304527;28;20220;-68
2024/01/17 03:36:27;;;;;;;7.25;2.80;;;;;;;;;;10314171;28;20210;-69
2024/01/17 03:41:28;;;;;;;4.93;2.47;;;;;;;;;;10323772;28;20585;-69
2024/01/17 03:46:29;;;;;;;3.70;2.95;;;;;;;;;;10320548;28;20218;-69
2024/01/17 03:51:30;;;;;;;4.28;2.38;;;;;;;;;;10309831;28;20188;-69
2024/01/17 03:56:31;;;;;;;7.00;2.47;;;;;;;;;;10332031;28;20231;-69
2024/01/17 04:01:32;;;;;;;4.65;2.33;;;;;;;;;;10309996;28;20217;-68
2024/01/17 04:06:33;;;;;;;4.57;3.23;;;;;;;;;;10318417;28;20228;-69
2024/01/17 04:11:34;;;;;;;10.77;3.07;;;;;;;;;;10315001;28;20878;-69
2024/01/17 04:16:36;;;;;;;6.63;4.05;;;;;;;;;;10319892;28;20217;-69
2024/01/17 04:21:37;;;;;;;8.17;4.17;;;;;;;;;;10288697;28;20592;-69
2024/01/17 04:26:38;;;;;;;4.43;3.63;;;;;;;;;;10336590;28;20215;-69
2024/01/17 04:31:39;;;;;;;4.97;2.70;;;;;;;;;;10319595;28;20248;-69
2024/01/17 04:36:40;;;;;;;3.73;2.90;;;;;;;;;;10298685;28;20219;-69
2024/01/17 04:41:41;;;;;;;3.53;2.63;;;;;;;;;;10287665;28;20199;-69
2024/01/17 04:46:42;;;;;;;6.27;2.30;;;;;;;;;;10323394;28;20217;-69
2024/01/17 04:51:43;;;;;;;7.05;3.92;;;;;;;;;;10315285;28;20185;-69
2024/01/17 04:56:44;;;;;;;6.57;2.40;;;;;;;;;;10326417;28;20327;-69
2024/01/17 05:01:45;;;;;;;7.32;3.33;;;;;;;;;;10310978;28;20218;-69
2024/01/17 05:06:46;;;;;;;4.20;2.58;;;;;;;;;;10306702;28;21827;-68
2024/01/17 05:11:47;;;;;;;3.47;3.17;;;;;;;;;;10297869;28;20197;-69
2024/01/17 05:16:48;;;;;;;8.23;3.27;;;;;;;;;;10319101;28;20200;-68
2024/01/17 05:21:49;;;;;;;7.20;2.40;;;;;;;;;;10314618;28;20215;-68
2024/01/17 05:26:50;;;;;;;4.80;2.93;;;;;;;;;;10325877;28;20307;-68
2024/01/17 05:31:51;;;;;;;5.47;3.57;;;;;;;;;;10323808;28;20224;-69
2024/01/17 05:36:52;;;;;;;8.20;3.40;;;;;;;;;;10313535;28;20293;-68
2024/01/17 05:41:53;;;;;;;7.07;3.40;;;;;;;;;;10314543;28;20310;-69
2024/01/17 05:46:54;;;;;;;13.07;4.33;;;;;;;;;;10299117;28;20224;-68
2024/01/17 05:51:55;;;;;;;4.25;3.38;;;;;;;;;;10298460;28;20189;-68
2024/01/17 05:56:56;;;;;;;4.50;3.20;;;;;;;;;;10294814;28;20212;-68
2024/01/17 06:01:58;;;;;;;7.50;4.30;;;;;;;;;;10298232;28;20657;-69
2024/01/17 06:06:59;;;;;;;7.07;4.30;;;;;;;;;;10316375;28;20216;-68
2024/01/17 06:12:00;;;;;;;6.63;3.43;;;;;;;;;;10285776;28;20844;-68
2024/01/17 06:17:01;;;;;;;8.47;3.50;;;;;;;;;;10301830;28;20428;-69
2024/01/17 06:22:02;;;;;;;4.50;3.83;;;;;;;;;;10304321;28;20192;-68
2024/01/17 06:27:03;;;;;;;7.87;4.30;;;;;;;;;;10316336;28;20304;-69
2024/01/17 06:32:05;;;;;;;4.90;3.37;;;;;;;;;;10282198;28;20287;-68
2024/01/17 06:37:06;;;;;;;3.47;3.13;;;;;;;;;;10291013;28;20236;-68
2024/01/17 06:42:07;;;;;;;4.93;3.50;;;;;;;;;;10309298;28;20227;-67
2024/01/17 06:47:08;;;;;;;5.67;3.43;;;;;;;;;;10273942;28;20300;-67
2024/01/17 06:52:09;;;;;;;4.50;3.70;;;;;;;;;;10302797;28;20193;-67
2024/01/17 06:57:10;;;;;;;3.80;2.63;;;;;;;;;;10305291;28;21165;-67
2024/01/17 07:02:11;;;;;;;3.20;2.67;;;;;;;;;;10311863;28;20714;-67
2024/01/17 07:07:12;;;;;;;3.27;2.97;;;;;;;;;;10272520;28;20298;-67
2024/01/17 07:12:13;;;;;;;6.40;2.53;;;;;;;;;;10287786;28;20189;-67
2024/01/17 07:17:14;;;;;;;3.90;2.87;;;;;;;;;;10298181;28;20586;-67
2024/01/17 07:22:16;;;;;;;8.52;3.05;;;;;;;;;;10310003;28;20188;-67
2024/01/17 07:27:17;;;;;;;4.10;2.50;;;;;;;;;;10306554;28;20295;-67
2024/01/17 07:32:18;;;;;;;2.97;2.53;;;;;;;;;;10322941;28;20228;-67
2024/01/17 07:37:19;;;;;;;2.40;2.20;;;;;;;;;;10303139;28;20890;-67
2024/01/17 07:42:21;;;;;;;2.17;1.93;;;;;;;;;;10306082;28;20547;-67
2024/01/17 07:47:23;;;;;;;4.93;2.43;;;;;;;;;;10291449;28;20226;-67
2024/01/17 07:52:24;;;;;;;5.07;2.23;;;;;;;;;;10298107;28;20193;-67
2024/01/17 07:57:25;;;;;;;5.77;2.57;;;;;;;;;;10323249;28;20614;-68
2024/01/17 08:02:26;;;;;;;8.60;2.70;;;;;;;;;;10301696;28;20220;-68
2024/01/17 08:07:27;;;;;;;3.83;2.83;;;;;;;;;;10310921;28;20630;-68
2024/01/17 08:12:28;;;;;;;2.43;2.23;;;;;;;;;;10294471;28;20204;-68
2024/01/17 08:17:29;;;;;;;2.20;1.63;;;;;;;;;;10277793;28;20594;-68
2024/01/17 08:22:30;;;;;;;2.97;1.77;;;;;;;;;;10297487;28;20213;-68
2024/01/17 08:27:31;;;;;;;3.95;2.63;;;;;;;;;;10284036;28;20221;-68
2024/01/17 08:32:32;;;;;;;7.50;2.47;;;;;;;;;;10308541;28;20228;-68
2024/01/17 08:37:35;;;;;;;6.40;3.85;;;;;;;;;;10300654;28;20674;-68
2024/01/17 08:42:36;;;;;;;4.97;2.77;;;;;;;;;;10300683;28;20189;-68
2024/01/17 08:47:38;;;;;;;6.77;2.60;;;;;;;;;;10289446;28;20205;-69
2024/01/17 08:52:39;;;;;;;8.18;3.92;;;;;;;;;;10294770;28;20228;-69
2024/01/17 08:57:40;;;;;;;3.60;3.30;;;;;;;;;;10291296;28;20201;-68
2024/01/17 09:02:41;;;;;;;6.55;2.75;;;;;;;;;;10280010;28;20799;-68
2024/01/17 09:07:43;;;;;;;6.50;3.55;;;;;;;;;;10298528;28;20222;-68
2024/01/17 09:12:44;;;;;;;5.03;3.00;;;;;;;;;;10294955;28;20622;-68
2024/01/17 09:17:45;;;;;;;3.22;2.92;;;;;;;;;;10291955;28;20199;-70
2024/01/17 09:22:46;;;;;;;11.40;3.53;;;;;;;;;;10298750;28;20224;-68
2024/01/17 09:27:47;;;;;;;6.70;3.45;;;;;;;;;;10298458;28;20212;-68
2024/01/17 09:32:48;;;;;;;4.85;3.00;;;;;;;;;;10289749;28;20231;-67
2024/01/17 09:37:50;;;;;;;4.25;3.08;;;;;;;;;;10298302;28;20349;-68
2024/01/17 09:42:51;;;;;;;4.90;2.95;;;;;;;;;;10290349;28;21047;-67
2024/01/17 09:47:54;;;;;;;3.55;3.22;;;;;;;;;;10299632;28;20304;-69
2024/01/17 09:52:57;;;;;;;6.32;2.47;;;;;;;;;;10296692;28;20718;-68
2024/01/17 09:57:59;;;;;;;3.08;2.78;;;;;;;;;;10286230;28;20276;-69
2024/01/17 10:03:02;;;;;;;3.95;3.00;;;;;;;;;;10288503;28;20232;-70
2024/01/17 10:08:04;;;;;;;3.72;3.17;;;;;;;;;;10286307;28;20670;-69
2024/01/17 10:13:06;;;;;;;3.70;2.42;;;;;;;;;;10289106;28;21182;-69
2024/01/17 10:18:09;;;;;;;8.02;4.40;;;;;;;;;;10295529;28;20319;-69
2024/01/17 10:23:10;;;;;;;4.07;3.63;;;;;;;;;;10284896;28;20850;-69
2024/01/17 10:28:11;;;;;;;5.55;4.00;;;;;;;;;;10290388;28;20217;-69
2024/01/17 10:33:13;;;;;;;7.63;4.03;;;;;;;;;;10284958;28;20224;-68
2024/01/17 10:38:14;;;;;;;7.20;3.78;;;;;;;;;;10312514;28;20203;-68
2024/01/17 10:43:16;;;;;;;7.95;4.38;;;;;;;;;;10306916;28;20296;-69
2024/01/17 10:48:17;;;;;;;6.63;4.35;;;;;;;;;;10312048;28;20263;-69
2024/01/17 10:53:19;;;;;;;6.10;3.33;;;;;;;;;;10298753;28;20839;-69
2024/01/17 10:58:21;;;;;;;12.00;3.65;;;;;;;;;;10311438;28;20782;-70
2024/01/17 11:03:24;;;;;;;5.10;3.90;;;;;;;;;;10302684;28;20251;-70
2024/01/17 11:08:26;;;;;;;7.18;4.18;;;;;;;;;;10307662;28;20598;-70
2024/01/17 11:13:27;;;;;;;7.70;4.40;;;;;;;;;;10300928;28;20213;-70
2024/01/17 11:18:29;;;;;;;5.70;3.92;;;;;;;;;;10298748;28;20199;-70
2024/01/17 11:23:36;;;;;;;8.27;4.53;;;;;;;;;;10302554;28;20404;-70
2024/01/17 11:28:41;;;;;;;4.63;4.05;;;;;;;;;;10307187;28;20225;-70
2024/01/17 11:33:43;;;;;;;4.82;3.95;;;;;;;;;;10309771;28;20239;-70
2024/01/17 11:38:44;;;;;;;5.50;4.00;;;;;;;;;;10313954;28;20681;-70
2024/01/17 11:43:45;;;;;;;5.55;4.10;;;;;;;;;;10302150;28;20252;-72
2024/01/17 11:48:49;;;;;;;8.48;4.25;;;;;;;;;;10284465;28;21524;-69
2024/01/17 11:53:53;;;;;;;4.97;4.47;;;;;;;;;;10284670;28;20204;-70
2024/01/17 11:58:58;;;;;;;8.52;5.30;;;;;;;;;;10282014;28;20193;-70
2024/01/17 12:03:59;;;;;;;8.30;5.80;;;;;;;;;;10296177;28;20220;-70
2024/01/17 12:09:00;;;;;;;12.00;4.63;;;;;;;;;;10297244;28;20244;-70
2024/01/17 12:14:02;;;;;;;9.95;5.50;;;;;;;;;;10317550;28;20212;-69
2024/01/17 12:19:03;;;;;;;6.88;5.55;;;;;;;;;;10279004;28;20186;-70
2024/01/17 12:24:04;;;;;;;6.25;4.70;;;;;;;;;;10303549;28;20216;-70
2024/01/17 12:29:06;;;;;;;6.25;4.95;;;;;;;;;;10312448;28;20240;-70
2024/01/17 12:34:07;;;;;;;10.45;5.43;;;;;;;;;;10308446;28;20232;-70
2024/01/17 12:39:09;;;;;;;7.38;4.65;;;;;;;;;;10323857;28;20208;-69
2024/01/17 12:44:10;;;;;;;7.63;4.80;;;;;;;;;;10295959;28;20240;-69
2024/01/17 12:49:14;;;;;;;4.50;4.00;;;;;;;;;;10302214;28;20620;-69
2024/01/17 12:54:19;;;;;;;8.07;5.20;;;;;;;;;;10297203;28;20319;-69
2024/01/17 12:59:20;;;;;;;9.00;5.63;;;;;;;;;;10311006;28;20678;-69
2024/01/17 13:04:21;;;;;;;8.25;5.38;;;;;;;;;;10299439;28;20249;-70
2024/01/17 13:09:22;;;;;;;6.38;5.18;;;;;;;;;;10312494;28;20777;-69
2024/01/17 13:14:24;;;;;;;10.68;5.47;;;;;;;;;;10313043;28;20201;-69
2024/01/17 13:19:25;;;;;;;6.32;5.53;;;;;;;;;;10299540;28;20197;-70
2024/01/17 13:24:26;;;;;;;8.93;5.95;;;;;;;;;;10314233;28;21018;-69
2024/01/17 13:29:27;;;;;;;9.68;6.00;;;;;;;;;;10305947;28;20204;-70
2024/01/17 13:34:28;;;;;;;9.85;6.10;;;;;;;;;;10310642;28;20229;-69
2024/01/17 13:39:29;;;;;;;7.97;6.53;;;;;;;;;;10304159;28;20894;-69
2024/01/17 13:44:30;;;;;;;10.40;6.75;;;;;;;;;;10302535;28;20245;-72
2024/01/17 13:49:33;;;;;;;8.73;5.47;;;;;;;;;;10299660;28;20287;-72
2024/01/17 13:54:34;;;;;;;8.65;5.40;;;;;;;;;;10272086;28;20295;-70
2024/01/17 13:59:39;;;;;;;6.60;5.38;;;;;;;;;;10301668;28;20196;-69
2024/01/17 14:04:40;;;;;;;7.57;6.18;;;;;;;;;;10301037;28;20219;-70
2024/01/17 14:09:41;;;;;;;10.93;6.38;;;;;;;;;;10289355;28;20279;-70
2024/01/17 14:14:42;;;;;;;13.80;6.18;;;;;;;;;;10288754;28;20224;-69
2024/01/17 14:19:43;;;;;;;9.45;5.70;;;;;;;;;;10298449;28;20196;-69
2024/01/17 14:24:44;;;;;;;9.65;5.40;;;;;;;;;;10296413;28;25102;-70
2024/01/17 14:29:45;;;;;;;7.30;5.70;;;;;;;;;;10307705;28;20200;-69
2024/01/17 14:34:46;;;;;;;10.38;6.15;;;;;;;;;;10268002;28;20635;-70
2024/01/17 14:39:48;;;;;;;9.43;5.85;;;;;;;;;;10310978;28;20189;-69
2024/01/17 14:44:49;;;;;;;7.70;5.70;;;;;;;;;;10292429;28;20639;-69
2024/01/17 14:49:50;;;;;;;11.57;6.30;;;;;;;;;;10269048;28;20794;-70
2024/01/17 14:54:52;;;;;;;9.30;6.55;;;;;;;;;;10297165;28;20209;-69
2024/01/17 14:59:56;;;;;;;12.00;6.43;;;;;;;;;;10309769;28;20686;-70
2024/01/17 15:04:57;;;;;;;7.30;5.72;;;;;;;;;;10290932;28;21036;-70
2024/01/17 15:09:58;;;;;;;8.15;6.38;;;;;;;;;;10302271;28;20242;-70
2024/01/17 15:14:59;;;;;;;11.20;6.05;;;;;;;;;;10312140;28;20810;-71
2024/01/17 15:20:00;;;;;;;11.27;5.68;;;;;;;;;;10284297;28;20228;-69
2024/01/17 15:25:02;;;;;;;8.95;5.63;;;;;;;;;;10284002;28;20217;-72
2024/01/17 15:30:04;;;;;;;14.45;6.57;;;;;;;;;;10302775;28;20210;-69
2024/01/17 15:35:06;;;;;;;8.25;5.13;;;;;;;;;;10296208;28;20318;-69
2024/01/17 15:40:10;;;;;;;10.43;5.70;;;;;;;;;;10302264;28;20575;-69
2024/01/17 15:45:11;;;;;;;8.48;5.80;;;;;;;;;;10304616;28;20633;-70
2024/01/17 15:50:17;;;;;;;8.82;6.45;;;;;;;;;;10280936;28;20274;-70
2024/01/17 15:55:18;;;;;;;9.15;5.97;;;;;;;;;;10283128;28;20231;-69
2024/01/17 16:00:19;;;;;;;10.70;6.18;;;;;;;;;;10281599;28;20198;-70
2024/01/17 16:05:20;;;;;;;11.82;6.57;;;;;;;;;;10288368;28;20213;-70
2024/01/17 16:10:21;;;;;;;7.70;5.63;;;;;;;;;;10289431;28;20209;-69
2024/01/17 16:15:22;;;;;;;6.18;5.35;;;;;;;;;;10282488;28;20224;-69
2024/01/17 16:20:23;;;;;;;11.60;6.13;;;;;;;;;;10296636;28;20716;-70
2024/01/17 16:25:24;;;;;;;6.57;5.57;;;;;;;;;;10300288;28;20709;-70
2024/01/17 16:30:25;;;;;;;9.23;5.45;;;;;;;;;;10304895;28;20212;-69
2024/01/17 16:35:26;;;;;;;10.32;5.95;;;;;;;;;;10254895;28;20963;-70
2024/01/17 16:40:29;;;;;;;9.77;5.95;;;;;;;;;;10256683;28;20326;-69
2024/01/17 16:45:30;;;;;;;10.60;6.20;;;;;;;;;;10278183;28;20218;-69
2024/01/17 16:50:31;;;;;;;8.77;6.05;;;;;;;;;;10252526;28;20275;-69
2024/01/17 16:55:33;;;;;;;10.93;6.60;;;;;;;;;;10270180;28;20682;-69
2024/01/17 17:00:35;;;;;;;11.23;6.70;;;;;;;;;;10250740;28;20274;-72
2024/01/17 17:05:37;;;;;;;8.65;6.55;;;;;;;;;;10280136;28;20281;-69
2024/01/17 17:10:38;;;;;;;20.50;10.38;;;;;;;;;;10272317;28;20209;-70
2024/01/17 17:15:39;;;;;;;12.30;7.40;;;;;;;;;;10284238;28;20616;-70
2024/01/17 17:20:41;;;;;;;14.25;7.75;;;;;;;;;;10265041;28;20197;-69
2024/01/17 17:25:43;;;;;;;17.27;7.47;;;;;;;;;;10254726;28;20605;-69
2024/01/17 17:30:44;;;;;;;13.23;7.97;;;;;;;;;;10255083;28;20319;-69
2024/01/17 17:35:45;;;;;;;15.85;9.23;;;;;;;;;;10307287;28;20229;-69
2024/01/17 17:40:46;;;;;;;11.27;7.68;;;;;;;;;;10298847;28;20252;-69
2024/01/17 17:45:47;;;;;;;18.65;10.57;;;;;;;;;;10315856;28;20205;-69
2024/01/17 17:50:48;;;;;;;13.82;8.27;;;;;;;;;;10311357;28;20316;-70
2024/01/17 17:55:50;;;;;;;11.60;7.15;;;;;;;;;;10294606;28;20262;-69
2024/01/17 18:00:51;;;;;;;11.05;7.45;;;;;;;;;;10314576;28;20212;-69
2024/01/17 18:05:52;;;;;;;9.85;7.60;;;;;;;;;;10294510;28;20794;-72
2024/01/17 18:10:53;;;;;;;11.57;8.32;;;;;;;;;;10306453;28;20192;-69
2024/01/17 18:15:54;;;;;;;11.35;7.85;;;;;;;;;;10317691;28;20220;-71
2024/01/17 18:20:55;;;;;;;14.60;8.48;;;;;;;;;;10303828;28;20197;-70
2024/01/17 18:25:56;;;;;;;13.82;9.27;;;;;;;;;;10312068;28;20213;-70
2024/01/17 18:30:57;;;;;;;16.27;9.32;;;;;;;;;;10291935;28;20208;-70
2024/01/17 18:35:59;;;;;;;17.98;9.80;;;;;;;;;;10303301;28;20202;-70
2024/01/17 18:41:00;;;;;;;14.68;8.13;;;;;;;;;;10292457;28;20200;-72
2024/01/17 18:46:01;;;;;;;13.10;9.13;;;;;;;;;;10293975;28;20691;-70
2024/01/17 18:51:02;;;;;;;16.27;10.02;;;;;;;;;;10313614;28;20192;-71
2024/01/17 18:56:03;;;;;;;17.52;9.07;;;;;;;;;;10303249;28;20671;-69
2024/01/17 19:01:05;;;;;;;15.02;10.07;;;;;;;;;;10281888;28;20216;-71
2024/01/17 19:06:07;;;;;;;19.40;11.00;;;;;;;;;;10304047;28;20212;-70
2024/01/17 19:11:08;;;;;;;22.67;11.50;;;;;;;;;;10316685;28;20200;-70
2024/01/17 19:16:09;;;;;;;21.83;11.60;;;;;;;;;;10311313;28;20208;-70
2024/01/17 19:21:10;;;;;;;22.30;12.63;;;;;;;;;;10298081;28;20848;-70
2024/01/17 19:26:11;;;;;;;22.70;11.70;;;;;;;;;;10316084;28;20262;-70
2024/01/17 19:31:12;;;;;;;18.80;10.00;;;;;;;;;;10298113;28;21594;-70
2024/01/17 19:36:13;;;;;;;16.50;9.32;;;;;;;;;;10309787;28;20211;-70
2024/01/17 19:41:14;;;;;;;15.25;9.52;;;;;;;;;;10301918;28;20200;-70
2024/01/17 19:46:17;;;;;;;14.52;8.60;;;;;;;;;;10313364;28;20380;-70
2024/01/17 19:51:19;;;;;;;15.85;9.10;;;;;;;;;;10303252;28;20207;-69
2024/01/17 19:56:20;;;;;;;20.05;10.35;;;;;;;;;;10296706;28;21017;-69
2024/01/17 20:01:21;;;;;;;18.33;10.23;;;;;;;;;;10284817;28;20221;-70
2024/01/17 20:06:22;;;;;;;17.20;10.13;;;;;;;;;;10289844;28;20315;-69
2024/01/17 20:11:24;;;;;;;20.05;11.20;;;;;;;;;;10306436;28;20240;-69
2024/01/17 20:16:25;;;;;;;22.85;11.43;;;;;;;;;;10306803;28;20213;-70
2024/01/17 20:21:27;;;;;;;22.30;12.23;;;;;;;;;;10316377;28;20197;-70
2024/01/17 20:26:29;;;;;;;20.55;11.90;;;;;;;;;;10312262;28;20222;-70
2024/01/17 20:31:31;;;;;;;20.08;11.20;;;;;;;;;;10282845;28;20226;-69
2024/01/17 20:36:32;;;;;;;19.73;11.35;;;;;;;;;;10307274;28;20239;-70
2024/01/17 20:41:33;;;;;;;17.60;9.68;;;;;;;;;;10302077;28;20638;-69
2024/01/17 20:46:39;;;;;;;18.02;10.50;;;;;;;;;;10317952;28;20217;-69
2024/01/17 20:51:40;;;;;;;21.58;10.30;;;;;;;;;;10295190;28;20212;-70
2024/01/17 20:56:45;;;;;;;25.77;11.77;;;;;;;;;;10320656;28;20212;-69
2024/01/17 21:01:46;;;;;;;23.55;11.05;;;;;;;;;;10274000;28;20236;-71
2024/01/17 21:06:49;;;;;;;19.70;10.63;;;;;;;;;;10299010;28;20390;-70
2024/01/17 21:11:50;;;;;;;21.27;11.05;;;;;;;;;;10292727;28;21006;-70
2024/01/17 21:16:51;;;;;;;19.98;10.50;;;;;;;;;;10303083;28;20317;-70
2024/01/17 21:21:52;;;;;;;19.30;10.40;;;;;;;;;;10319546;28;20211;-70
2024/01/17 21:26:53;;;;;;;19.52;10.85;;;;;;;;;;10311205;28;20217;-69
2024/01/17 21:31:54;;;;;;;16.55;9.82;;;;;;;;;;10283918;28;20251;-69
2024/01/17 21:36:55;;;;;;;22.15;10.98;;;;;;;;;;10309685;28;20736;-69
2024/01/17 21:41:56;;;;;;;19.98;10.82;;;;;;;;;;10300549;28;20188;-69
2024/01/17 21:46:57;;;;;;;18.45;11.25;;;;;;;;;;10302611;28;20236;-70
2024/01/17 21:51:59;;;;;;;21.33;10.43;;;;;;;;;;10284601;28;20196;-69
2024/01/17 21:57:00;;;;;;;19.05;11.10;;;;;;;;;;10310094;28;20219;-71
2024/01/17 22:02:01;;;;;;;21.05;11.02;;;;;;;;;;10296963;28;20225;-69
2024/01/17 22:07:02;;;;;;;21.40;11.35;;;;;;;;;;10318717;28;20224;-69
2024/01/17 22:12:04;;;;;;;20.10;10.90;;;;;;;;;;10313244;28;20196;-68
2024/01/17 22:17:05;;;;;;;18.30;10.68;;;;;;;;;;10292003;28;20346;-68
2024/01/17 22:22:06;;;;;;;23.73;10.80;;;;;;;;;;10317866;28;20329;-69
2024/01/17 22:27:07;;;;;;;24.55;11.05;;;;;;;;;;10292475;28;20217;-69
2024/01/17 22:32:08;;;;;;;18.30;9.73;;;;;;;;;;10304813;28;20822;-69
2024/01/17 22:37:09;;;;;;;18.98;10.43;;;;;;;;;;10317430;28;20319;-69
2024/01/17 22:42:10;;;;;;;21.40;12.07;;;;;;;;;;10294636;28;20279;-69
2024/01/17 22:47:11;;;;;;;16.60;9.50;;;;;;;;;;10318386;28;20220;-69
2024/01/17 22:52:12;;;;;;;21.95;10.88;;;;;;;;;;10286045;28;20272;-69
2024/01/17 22:57:13;;;;;;;21.42;9.52;;;;;;;;;;10294334;28;20290;-68
2024/01/17 23:02:14;;;;;;;17.50;9.30;;;;;;;;;;10315262;28;20302;-68
2024/01/17 23:07:15;;;;;;;17.42;9.30;;;;;;;;;;10307270;28;20945;-68
2024/01/17 23:12:16;;;;;;;17.27;8.30;;;;;;;;;;10316399;28;20199;-71
2024/01/17 23:17:17;;;;;;;19.73;9.00;;;;;;;;;;10298731;28;20224;-69
2024/01/17 23:22:18;;;;;;;17.30;9.70;;;;;;;;;;10318654;28;20537;-69
2024/01/17 23:27:19;;;;;;;17.80;9.77;;;;;;;;;;10312624;28;20761;-69
2024/01/17 23:32:20;;;;;;;19.63;10.02;;;;;;;;;;10312754;28;20248;-70
2024/01/17 23:37:21;;;;;;;26.98;11.00;;;;;;;;;;10298535;28;20675;-68
2024/01/17 23:42:22;;;;;;;20.00;10.85;;;;;;;;;;10313219;28;20546;-68
2024/01/17 23:47:23;;;;;;;18.08;10.27;;;;;;;;;;10320366;28;20291;-68
2024/01/17 23:52:26;;;;;;;16.30;9.60;;;;;;;;;;10303735;28;20221;-68
2024/01/17 23:57:27;;;;;;;21.60;10.20;;;;;;;;;;10322920;28;20300;-68
